Terminal Aerodrome Forecast
Issued by NWS Wilmington, OH

Current Version | Previous Version | Graphics & Text | Print | Product List | Glossary On
Versions: 1 2 3 4 5 6 7 8 9 10 11 12 13 14 15 16 17 18 19
988
FTUS41 KILN 071738
TAFILN
TAF
KILN 071738Z 0718/0818 21011G19KT P6SM BKN150
     FM072200 20008KT P6SM BKN150
     FM080300 20010KT P6SM VCSH SCT015 BKN080
     FM080500 22005KT P6SM SCT015 BKN035
      TEMPO 0806/0809 BKN015
     FM081600 27008KT P6SM VCSH SCT025 BKN050=

USA.gov is the U.S. government's official web portal to all federal, state and local government web resources and services.